createdAt,value
2022-11-06T00:00:31.773Z,91.60
2022-11-06T00:01:31.828Z,91.77
2022-11-06T00:02:31.804Z,91.25
2022-11-06T00:03:31.768Z,92.08
2022-11-06T00:04:31.739Z,91.25
2022-11-06T00:05:31.727Z,91.36
2022-11-06T00:06:31.712Z,91.36
2022-11-06T00:07:32.167Z,91.50
2022-11-06T00:08:31.748Z,90.94
2022-11-06T00:09:31.675Z,90.94
2022-11-06T00:10:31.690Z,91.66
2022-11-06T00:11:31.663Z,90.94
2022-11-06T00:12:31.655Z,91.05
2022-11-06T00:13:31.657Z,91.71
2022-11-06T00:14:31.624Z,91.81
2022-11-06T00:15:31.612Z,91.81
2022-11-06T00:16:31.744Z,91.81
2022-11-06T00:17:31.597Z,91.81
2022-11-06T00:18:31.601Z,91.60
2022-11-06T00:19:31.574Z,91.71
2022-11-06T00:20:31.559Z,91.81
2022-11-06T00:21:31.549Z,91.30
2022-11-06T00:22:31.534Z,92.22
2022-11-06T00:23:31.856Z,92.33
2022-11-06T00:24:31.531Z,92.02
2022-11-06T00:25:31.505Z,92.53
2022-11-06T00:26:31.489Z,92.22
2022-11-06T00:27:31.481Z,92.63
2022-11-06T00:28:31.492Z,92.22
2022-11-06T00:29:31.482Z,92.22
2022-11-06T00:30:31.468Z,92.43
2022-11-06T00:31:31.446Z,91.91
2022-11-06T00:32:31.443Z,92.12
2022-11-06T00:33:31.417Z,92.12
2022-11-06T00:34:31.403Z,91.71
2022-11-06T00:35:31.424Z,92.33
2022-11-06T00:36:31.387Z,91.71
2022-11-06T00:37:31.381Z,92.12
2022-11-06T00:38:31.361Z,92.84
2022-11-06T00:39:31.362Z,92.99
2022-11-06T00:40:31.377Z,92.74
2022-11-06T00:41:31.344Z,92.68
2022-11-06T00:42:31.329Z,92.57
2022-11-06T00:43:31.310Z,93.09
2022-11-06T00:44:31.294Z,92.88
2022-11-06T00:45:31.317Z,93.09
2022-11-06T00:46:31.271Z,92.99
2022-11-06T00:47:31.266Z,93.19
2022-11-06T00:48:31.367Z,93.30
2022-11-06T00:49:31.246Z,93.91
2022-11-06T00:50:31.228Z,93.09
2022-11-06T00:51:31.228Z,93.81
2022-11-06T00:52:31.212Z,93.30
2022-11-06T00:53:31.200Z,93.19
2022-11-06T00:54:31.206Z,93.30
2022-11-06T00:55:31.176Z,93.30
2022-11-06T00:56:31.203Z,93.60
2022-11-06T00:57:31.166Z,93.30
2022-11-06T00:58:31.141Z,93.81
2022-11-06T00:59:31.159Z,93.30
2022-11-06T01:00:31.139Z,93.09
2022-11-06T01:01:31.298Z,93.50
2022-11-06T01:02:31.244Z,93.81
2022-11-06T01:03:31.086Z,93.50
2022-11-06T01:04:31.103Z,93.81
2022-11-06T01:05:31.072Z,93.40
2022-11-06T01:06:31.079Z,93.81
2022-11-06T01:07:31.043Z,93.71
2022-11-06T01:08:31.029Z,93.30
2022-11-06T01:09:31.056Z,93.19
2022-11-06T01:10:31.035Z,93.71
2022-11-06T01:11:46.599Z,93.30
2022-11-06T01:12:32.010Z,93.81
2022-11-06T01:13:30.981Z,93.44
2022-11-06T01:14:30.971Z,93.54
2022-11-06T01:15:30.984Z,93.50
2022-11-06T01:16:30.948Z,92.99
2022-11-06T01:17:30.945Z,93.30
2022-11-06T01:18:30.925Z,92.99
2022-11-06T01:19:30.922Z,92.82
2022-11-06T01:20:30.923Z,93.85
2022-11-06T01:21:30.988Z,93.75
2022-11-06T01:22:30.877Z,92.82
2022-11-06T01:23:30.963Z,92.86
2022-11-06T01:24:30.964Z,93.03
2022-11-06T01:25:30.978Z,93.18
2022-11-06T01:26:38.256Z,93.28
2022-11-06T01:27:31.884Z,93.54
2022-11-06T01:28:30.829Z,93.49
2022-11-06T01:29:30.994Z,93.59
2022-11-06T01:30:30.790Z,93.79
2022-11-06T01:31:30.973Z,93.44
2022-11-06T01:32:30.770Z,93.85
2022-11-06T01:33:30.816Z,93.90
2022-11-06T01:34:30.771Z,93.90
2022-11-06T01:35:30.734Z,93.18
2022-11-06T01:36:30.744Z,93.59
2022-11-06T01:37:30.721Z,93.38
2022-11-06T01:38:30.702Z,93.49
2022-11-06T01:39:30.712Z,93.69
2022-11-06T01:40:30.698Z,93.79
2022-11-06T01:41:30.665Z,93.49
2022-11-06T01:42:30.663Z,94.10
2022-11-06T01:43:30.644Z,94.21
2022-11-06T01:44:30.665Z,94.10
2022-11-06T01:45:30.646Z,94.31
2022-11-06T01:46:30.614Z,94.31
2022-11-06T01:47:30.597Z,94.37
2022-11-06T01:48:30.606Z,94.47
2022-11-06T01:49:30.615Z,94.27
2022-11-06T01:50:30.587Z,94.17
2022-11-06T01:51:30.567Z,93.75
2022-11-06T01:52:30.546Z,93.44
2022-11-06T01:53:30.529Z,93.54
2022-11-06T01:54:30.520Z,93.44
2022-11-06T01:55:30.587Z,93.09
2022-11-06T01:56:30.498Z,92.99
2022-11-06T01:57:30.509Z,93.50
2022-11-06T01:58:30.476Z,93.85
2022-11-06T01:59:30.462Z,93.44
2022-11-06T02:00:30.499Z,93.13
2022-11-06T02:01:30.562Z,93.24
2022-11-06T02:02:30.546Z,93.03
2022-11-06T02:03:30.417Z,93.34
2022-11-06T02:04:30.409Z,93.54
2022-11-06T02:05:32.186Z,93.34
2022-11-06T02:06:30.388Z,93.34
2022-11-06T02:07:30.401Z,93.75
2022-11-06T02:08:30.367Z,93.54
2022-11-06T02:09:30.380Z,93.75
2022-11-06T02:10:30.397Z,93.75
2022-11-06T02:11:30.336Z,93.40
2022-11-06T02:12:30.321Z,93.96
2022-11-06T02:13:30.313Z,93.24
2022-11-06T02:14:30.298Z,93.24
2022-11-06T02:15:30.311Z,93.24
2022-11-06T02:16:30.313Z,93.24
2022-11-06T02:17:30.287Z,93.40
2022-11-06T02:18:30.267Z,92.99
2022-11-06T02:19:30.259Z,93.44
2022-11-06T02:20:30.297Z,93.34
2022-11-06T02:21:30.230Z,93.50
2022-11-06T02:22:30.250Z,93.24
2022-11-06T02:23:30.200Z,93.44
2022-11-06T02:24:30.185Z,93.60
2022-11-06T02:25:30.202Z,93.50
2022-11-06T02:26:30.171Z,93.34
2022-11-06T02:27:30.163Z,93.44
2022-11-06T02:28:30.144Z,94.12
2022-11-06T02:29:30.158Z,93.40
2022-11-06T02:30:30.167Z,93.50
2022-11-06T02:31:30.114Z,94.02
2022-11-06T02:32:30.115Z,93.25
2022-11-06T02:33:30.087Z,93.25
2022-11-06T02:34:30.083Z,93.05
2022-11-06T02:35:30.088Z,93.66
2022-11-06T02:36:30.061Z,93.87
2022-11-06T02:37:30.051Z,93.56
2022-11-06T02:38:30.036Z,92.94
2022-11-06T02:39:30.029Z,92.94
2022-11-06T02:40:30.039Z,93.15
2022-11-06T02:41:30.000Z,93.15
2022-11-06T02:42:29.995Z,92.74
2022-11-06T02:43:29.978Z,92.84
2022-11-06T02:44:30.009Z,93.05
2022-11-06T02:45:29.964Z,93.09
2022-11-06T02:46:29.944Z,93.19
2022-11-06T02:47:30.010Z,92.68
2022-11-06T02:48:30.056Z,92.99
2022-11-06T02:49:29.917Z,93.30
2022-11-06T02:50:29.903Z,93.19
2022-11-06T02:51:29.928Z,93.19
2022-11-06T02:52:29.880Z,93.60
2022-11-06T02:53:29.868Z,93.40
2022-11-06T02:54:29.859Z,93.19
2022-11-06T02:55:29.847Z,93.19
2022-11-06T02:56:29.837Z,93.19
2022-11-06T02:57:29.845Z,93.50
2022-11-06T02:58:29.837Z,93.19
2022-11-06T02:59:29.801Z,93.50
2022-11-06T03:00:29.790Z,93.50
2022-11-06T03:01:29.973Z,93.19
2022-11-06T03:02:29.899Z,93.85
2022-11-06T03:03:29.786Z,93.60
2022-11-06T03:04:29.764Z,93.85
2022-11-06T03:05:29.743Z,93.54
2022-11-06T03:06:29.746Z,93.03
2022-11-06T03:07:29.715Z,92.99
2022-11-06T03:08:29.699Z,93.24
2022-11-06T03:09:29.695Z,93.34
2022-11-06T03:10:29.703Z,93.44
2022-11-06T03:11:29.697Z,93.75
2022-11-06T03:12:29.664Z,93.65
2022-11-06T03:13:29.650Z,93.85
2022-11-06T03:14:29.651Z,93.85
2022-11-06T03:15:29.648Z,93.50
2022-11-06T03:16:29.634Z,93.34
2022-11-06T03:17:29.605Z,93.54
2022-11-06T03:18:29.586Z,93.85
2022-11-06T03:19:29.595Z,93.34
2022-11-06T03:20:29.615Z,93.91
2022-11-06T03:21:29.582Z,94.23
2022-11-06T03:22:29.608Z,94.23
2022-11-06T03:23:29.652Z,94.17
2022-11-06T03:24:31.176Z,94.27
2022-11-06T03:25:29.510Z,94.27
2022-11-06T03:26:29.503Z,94.27
2022-11-06T03:27:29.516Z,94.23
2022-11-06T03:28:29.476Z,94.27
2022-11-06T03:29:29.471Z,94.02
2022-11-06T03:30:29.483Z,94.27
2022-11-06T03:31:29.446Z,94.32
2022-11-06T03:32:29.438Z,94.27
2022-11-06T03:33:29.452Z,94.12
2022-11-06T03:34:29.414Z,94.32
2022-11-06T03:35:29.433Z,94.12
2022-11-06T03:36:29.496Z,94.32
2022-11-06T03:37:29.382Z,94.02
2022-11-06T03:38:29.380Z,94.18
2022-11-06T03:39:29.368Z,93.98
2022-11-06T03:40:29.374Z,93.35
2022-11-06T03:41:29.341Z,93.56
2022-11-06T03:42:29.327Z,93.77
2022-11-06T03:43:29.332Z,93.15
2022-11-06T03:44:29.317Z,93.35
2022-11-06T03:45:29.644Z,92.94
2022-11-06T03:46:29.406Z,93.46
2022-11-06T03:47:29.276Z,93.46
2022-11-06T03:48:29.338Z,93.25
2022-11-06T03:49:29.254Z,93.25
2022-11-06T03:50:29.245Z,92.94
2022-11-06T03:51:29.252Z,93.46
2022-11-06T03:52:29.236Z,93.35
2022-11-06T03:53:29.221Z,93.05
2022-11-06T03:54:29.223Z,93.15
2022-11-06T03:55:29.188Z,93.21
2022-11-06T03:56:29.176Z,92.94
2022-11-06T03:57:29.166Z,93.52
2022-11-06T03:58:29.197Z,93.56
2022-11-06T03:59:29.165Z,93.25
2022-11-06T04:00:29.166Z,93.35
2022-11-06T04:01:29.269Z,92.90
2022-11-06T04:02:29.284Z,93.01
2022-11-06T04:03:29.100Z,93.01
2022-11-06T04:04:29.087Z,93.21
2022-11-06T04:05:29.161Z,93.05
2022-11-06T04:06:29.068Z,93.01
2022-11-06T04:07:29.090Z,93.11
2022-11-06T04:08:29.069Z,93.21
2022-11-06T04:09:29.040Z,93.01
2022-11-06T04:10:29.046Z,93.21
2022-11-06T04:11:29.045Z,93.25
2022-11-06T04:12:29.024Z,93.15
2022-11-06T04:13:28.992Z,93.11
2022-11-06T04:14:28.985Z,93.11
2022-11-06T04:15:29.002Z,93.11
2022-11-06T04:16:29.029Z,93.11
2022-11-06T04:17:28.949Z,93.11
2022-11-06T04:18:28.943Z,93.31
2022-11-06T04:19:28.985Z,93.21
2022-11-06T04:20:28.944Z,93.01
2022-11-06T04:21:28.937Z,93.01
2022-11-06T04:22:28.900Z,93.01
2022-11-06T04:23:28.882Z,92.74
2022-11-06T04:24:28.893Z,93.62
2022-11-06T04:25:28.866Z,92.69
2022-11-06T04:26:28.871Z,93.73
2022-11-06T04:27:28.843Z,93.41
2022-11-06T04:28:28.826Z,92.90
2022-11-06T04:29:28.823Z,93.11
2022-11-06T04:30:28.804Z,93.21
2022-11-06T04:31:28.844Z,93.01
2022-11-06T04:32:28.787Z,92.90
2022-11-06T04:33:28.776Z,93.05
2022-11-06T04:34:28.767Z,92.94
2022-11-06T04:35:28.767Z,93.46
2022-11-06T04:36:28.767Z,93.77
2022-11-06T04:37:28.733Z,93.41
2022-11-06T04:38:28.745Z,93.41
2022-11-06T04:39:28.723Z,93.73
2022-11-06T04:40:28.714Z,93.31
2022-11-06T04:41:28.710Z,93.21
2022-11-06T04:42:28.672Z,93.62
2022-11-06T04:43:28.703Z,93.21
2022-11-06T04:44:28.652Z,93.21
2022-11-06T04:45:28.640Z,93.01
2022-11-06T04:46:28.649Z,93.01
2022-11-06T04:47:28.619Z,93.41
2022-11-06T04:48:28.609Z,93.31
2022-11-06T04:49:28.620Z,93.73
2022-11-06T04:50:28.606Z,93.62
2022-11-06T04:51:28.575Z,93.11
2022-11-06T04:52:28.573Z,93.11
2022-11-06T04:53:28.559Z,93.52
2022-11-06T04:54:28.540Z,93.62
2022-11-06T04:55:28.556Z,93.31
2022-11-06T04:56:29.681Z,93.41
2022-11-06T04:57:28.511Z,93.62
2022-11-06T04:58:28.503Z,93.41
2022-11-06T04:59:28.502Z,93.73
2022-11-06T05:00:28.481Z,93.11
2022-11-06T05:01:28.585Z,93.01
2022-11-06T05:02:28.531Z,92.80
2022-11-06T05:03:28.442Z,92.69
2022-11-06T05:04:28.429Z,92.69
2022-11-06T05:05:28.449Z,93.21
2022-11-06T05:06:30.194Z,93.31
2022-11-06T05:07:28.395Z,92.80
2022-11-06T05:08:28.383Z,93.31
2022-11-06T05:09:28.382Z,93.11
2022-11-06T05:10:28.361Z,92.59
2022-11-06T05:11:28.387Z,92.69
2022-11-06T05:12:28.356Z,92.80
2022-11-06T05:13:28.335Z,92.90
2022-11-06T05:14:28.329Z,93.01
2022-11-06T05:15:28.307Z,92.94
2022-11-06T05:16:28.317Z,92.69
2022-11-06T05:17:31.468Z,92.80
2022-11-06T05:18:29.271Z,92.90
2022-11-06T05:19:28.265Z,93.15
2022-11-06T05:20:28.285Z,92.49
2022-11-06T05:21:28.236Z,93.15
2022-11-06T05:22:28.223Z,92.49
2022-11-06T05:23:28.215Z,92.90
2022-11-06T05:24:28.204Z,93.01
2022-11-06T05:25:28.190Z,93.01
2022-11-06T05:26:28.202Z,92.90
2022-11-06T05:27:28.197Z,92.69
2022-11-06T05:28:28.176Z,92.69
2022-11-06T05:29:28.161Z,92.90
2022-11-06T05:30:28.138Z,92.80
2022-11-06T05:31:28.126Z,92.80
2022-11-06T05:32:30.012Z,92.96
2022-11-06T05:33:28.122Z,92.86
2022-11-06T05:34:28.087Z,92.69
2022-11-06T05:35:28.083Z,92.86
2022-11-06T05:36:28.070Z,93.16
2022-11-06T05:37:28.054Z,92.69
2022-11-06T05:38:28.065Z,92.76
2022-11-06T05:39:28.058Z,92.14
2022-11-06T05:40:28.020Z,92.86
2022-11-06T05:41:28.009Z,92.44
2022-11-06T05:42:28.022Z,92.44
2022-11-06T05:43:27.986Z,92.34
2022-11-06T05:44:27.991Z,92.34
2022-11-06T05:45:27.972Z,92.55
2022-11-06T05:46:48.799Z,92.55
2022-11-06T05:47:28.975Z,92.14
2022-11-06T05:48:27.934Z,92.03
2022-11-06T05:49:27.919Z,92.03
2022-11-06T05:50:27.907Z,91.52
2022-11-06T05:51:27.893Z,91.52
2022-11-06T05:52:27.896Z,91.42
2022-11-06T05:53:27.893Z,91.78
2022-11-06T05:54:27.861Z,91.42
2022-11-06T05:55:27.847Z,90.90
2022-11-06T05:56:27.842Z,90.80
2022-11-06T05:57:27.857Z,91.11
2022-11-06T05:58:27.844Z,91.31
2022-11-06T05:59:27.826Z,91.21
2022-11-06T06:00:27.895Z,91.21
2022-11-06T06:01:27.978Z,91.52
2022-11-06T06:02:27.936Z,91.62
2022-11-06T06:03:27.758Z,91.52
2022-11-06T06:04:27.747Z,91.62
2022-11-06T06:05:27.734Z,91.52
2022-11-06T06:06:27.772Z,91.72
2022-11-06T06:07:27.735Z,91.42
2022-11-06T06:08:27.712Z,91.47
2022-11-06T06:09:27.697Z,90.86
2022-11-06T06:10:27.680Z,90.86
2022-11-06T06:11:27.701Z,90.34
2022-11-06T06:12:27.687Z,90.24
2022-11-06T06:13:27.645Z,90.34
2022-11-06T06:14:27.657Z,90.34
2022-11-06T06:15:27.649Z,90.03
2022-11-06T06:16:27.755Z,90.34
2022-11-06T06:17:27.660Z,90.24
2022-11-06T06:18:27.620Z,90.66
2022-11-06T06:19:27.599Z,90.24
2022-11-06T06:20:27.573Z,89.83
2022-11-06T06:21:27.552Z,90.55
2022-11-06T06:22:27.544Z,89.94
2022-11-06T06:23:27.671Z,90.14
2022-11-06T06:24:27.567Z,89.73
2022-11-06T06:25:27.600Z,89.73
2022-11-06T06:26:27.501Z,89.73
2022-11-06T06:27:27.485Z,90.03
2022-11-06T06:28:27.479Z,90.55
2022-11-06T06:29:27.534Z,90.55
2022-11-06T06:30:27.452Z,90.34
2022-11-06T06:31:27.446Z,89.97
2022-11-06T06:32:27.535Z,89.94
2022-11-06T06:33:27.441Z,89.94
2022-11-06T06:34:27.411Z,90.03
2022-11-06T06:35:27.391Z,89.01
2022-11-06T06:36:27.396Z,88.90
2022-11-06T06:37:27.398Z,88.90
2022-11-06T06:38:27.360Z,89.31
2022-11-06T06:39:27.354Z,89.22
2022-11-06T06:40:27.399Z,90.34
2022-11-06T06:41:27.324Z,88.80
2022-11-06T06:42:31.278Z,88.80
2022-11-06T06:43:27.331Z,89.01
2022-11-06T06:44:27.292Z,89.83
2022-11-06T06:45:27.303Z,90.45
2022-11-06T06:46:27.272Z,89.83
2022-11-06T06:47:27.257Z,90.14
2022-11-06T06:48:27.291Z,89.94
2022-11-06T06:49:27.237Z,90.14
2022-11-06T06:50:27.226Z,90.14
2022-11-06T06:51:27.214Z,90.24
2022-11-06T06:52:27.232Z,90.24
2022-11-06T06:53:27.194Z,90.24
2022-11-06T06:54:27.187Z,89.73
2022-11-06T06:55:27.176Z,90.24
2022-11-06T06:56:27.158Z,89.83
2022-11-06T06:57:27.148Z,89.62
2022-11-06T06:58:27.161Z,88.80
2022-11-06T06:59:27.124Z,88.80
2022-11-06T07:00:27.120Z,88.76
2022-11-06T07:01:27.298Z,88.70
2022-11-06T07:02:27.175Z,89.11
2022-11-06T07:03:27.107Z,89.11
2022-11-06T07:04:27.292Z,89.01
2022-11-06T07:05:27.063Z,89.31
2022-11-06T07:06:27.056Z,89.31
2022-11-06T07:07:27.050Z,89.31
2022-11-06T07:08:27.036Z,88.90
2022-11-06T07:09:27.035Z,88.86
2022-11-06T07:10:27.000Z,88.90
2022-11-06T07:11:26.991Z,89.17
2022-11-06T07:12:27.006Z,88.35
2022-11-06T07:13:29.299Z,89.31
2022-11-06T07:14:27.956Z,89.07
2022-11-06T07:15:26.945Z,88.90
2022-11-06T07:16:26.935Z,88.90
2022-11-06T07:17:26.923Z,89.11
2022-11-06T07:18:27.026Z,89.31
2022-11-06T07:19:26.932Z,88.96
2022-11-06T07:20:26.933Z,89.22
2022-11-06T07:21:26.879Z,88.96
2022-11-06T07:22:33.733Z,88.86
2022-11-06T07:23:27.852Z,88.90
2022-11-06T07:24:26.873Z,89.07
2022-11-06T07:25:26.833Z,89.01
2022-11-06T07:26:26.823Z,89.11
2022-11-06T07:27:26.812Z,89.73
2022-11-06T07:28:26.802Z,89.73
2022-11-06T07:29:26.823Z,89.01
2022-11-06T07:30:26.783Z,89.22
2022-11-06T07:31:26.771Z,89.31
2022-11-06T07:32:26.772Z,89.11
2022-11-06T07:33:26.744Z,89.11
2022-11-06T07:34:26.753Z,89.01
2022-11-06T07:35:26.716Z,88.96
2022-11-06T07:36:26.903Z,88.49
2022-11-06T07:37:26.719Z,89.11
2022-11-06T07:38:26.692Z,89.01
2022-11-06T07:39:26.696Z,89.62
2022-11-06T07:40:26.662Z,89.83
2022-11-06T07:41:26.671Z,90.24
2022-11-06T07:42:26.639Z,90.24
2022-11-06T07:43:26.660Z,89.83
2022-11-06T07:44:26.626Z,89.62
2022-11-06T07:45:26.606Z,90.14
2022-11-06T07:46:26.626Z,90.14
2022-11-06T07:47:26.590Z,89.94
2022-11-06T07:48:26.585Z,89.83
2022-11-06T07:49:26.586Z,89.83
2022-11-06T07:50:26.552Z,89.94
2022-11-06T07:51:26.559Z,89.94
2022-11-06T07:52:26.633Z,89.62
2022-11-06T07:53:26.525Z,90.03
2022-11-06T07:54:26.506Z,89.94
2022-11-06T07:55:26.517Z,89.42
2022-11-06T07:56:26.489Z,90.03
2022-11-06T07:57:26.473Z,90.00
2022-11-06T07:58:26.459Z,90.14
2022-11-06T07:59:26.447Z,89.69
2022-11-06T08:00:26.465Z,88.76
2022-11-06T08:01:26.724Z,88.96
2022-11-06T08:02:26.522Z,89.28
2022-11-06T08:03:26.408Z,89.07
2022-11-06T08:04:26.394Z,87.90
2022-11-06T08:05:26.411Z,87.90
2022-11-06T08:06:26.367Z,87.59
2022-11-06T08:07:26.355Z,87.84
2022-11-06T08:08:26.401Z,88.20
2022-11-06T08:09:26.349Z,88.00
2022-11-06T08:10:26.338Z,88.31
2022-11-06T08:11:26.320Z,88.10
2022-11-06T08:12:26.339Z,88.20
2022-11-06T08:13:26.316Z,87.69
2022-11-06T08:14:26.275Z,88.10
2022-11-06T08:15:26.267Z,87.59
2022-11-06T08:16:26.267Z,88.17
2022-11-06T08:17:26.272Z,88.17
2022-11-06T08:18:26.245Z,87.85
2022-11-06T08:19:26.234Z,86.72
2022-11-06T08:20:26.293Z,86.52
2022-11-06T08:21:26.198Z,86.83
2022-11-06T08:22:26.187Z,87.45
2022-11-06T08:23:26.198Z,86.79
2022-11-06T08:24:26.184Z,86.58
2022-11-06T08:25:26.155Z,86.62
2022-11-06T08:26:26.169Z,86.72
2022-11-06T08:27:26.153Z,87.34
2022-11-06T08:28:26.147Z,87.24
2022-11-06T08:29:26.106Z,86.83
2022-11-06T08:30:26.098Z,86.93
2022-11-06T08:31:26.107Z,87.85
2022-11-06T08:32:26.076Z,87.82
2022-11-06T08:33:26.088Z,86.89
2022-11-06T08:34:26.063Z,87.82
2022-11-06T08:35:26.040Z,87.40
2022-11-06T08:36:26.037Z,86.99
2022-11-06T08:37:26.022Z,86.89
2022-11-06T08:38:26.041Z,86.65
2022-11-06T08:39:25.995Z,85.93
2022-11-06T08:40:30.658Z,86.44
2022-11-06T08:41:26.977Z,86.44
2022-11-06T08:42:25.968Z,86.38
2022-11-06T08:43:25.962Z,86.58
2022-11-06T08:44:25.971Z,86.68
2022-11-06T08:45:25.931Z,86.07
2022-11-06T08:46:25.926Z,86.48
2022-11-06T08:47:25.908Z,86.89
2022-11-06T08:48:25.995Z,86.95
2022-11-06T08:49:25.907Z,86.54
2022-11-06T08:50:25.891Z,86.13
2022-11-06T08:51:25.871Z,86.30
2022-11-06T08:52:29.878Z,86.71
2022-11-06T08:53:26.919Z,85.64
2022-11-06T08:54:25.859Z,85.44
2022-11-06T08:55:25.825Z,84.00
2022-11-06T08:56:25.829Z,84.72
2022-11-06T08:57:25.828Z,84.68
2022-11-06T08:58:25.816Z,84.44
2022-11-06T08:59:25.779Z,83.65
2022-11-06T09:00:25.787Z,84.12
2022-11-06T09:01:25.947Z,83.00
2022-11-06T09:02:25.920Z,82.69
2022-11-06T09:03:25.755Z,83.14
2022-11-06T09:04:25.722Z,82.59
2022-11-06T09:05:25.707Z,82.73
2022-11-06T09:06:25.698Z,82.90
2022-11-06T09:07:25.689Z,82.86
2022-11-06T09:08:25.675Z,82.65
2022-11-06T09:09:25.689Z,82.24
2022-11-06T09:10:25.713Z,82.04
2022-11-06T09:11:25.647Z,82.04
2022-11-06T09:12:25.648Z,82.24
2022-11-06T09:13:25.647Z,82.24
2022-11-06T09:14:25.641Z,82.65
2022-11-06T09:15:25.595Z,82.24
2022-11-06T09:16:25.588Z,81.29
2022-11-06T09:17:25.572Z,81.22
2022-11-06T09:18:25.565Z,81.84
2022-11-06T09:19:25.551Z,81.18
2022-11-06T09:20:25.664Z,81.18
2022-11-06T09:21:25.552Z,81.29
2022-11-06T09:22:25.518Z,81.43
2022-11-06T09:23:25.650Z,81.43
2022-11-06T09:24:49.548Z,81.08
2022-11-06T09:25:26.488Z,81.22
2022-11-06T09:26:25.500Z,80.91
2022-11-06T09:27:25.470Z,81.32
2022-11-06T09:28:25.676Z,81.73
2022-11-06T09:29:25.440Z,81.22
2022-11-06T09:30:25.516Z,81.70
2022-11-06T09:31:25.421Z,81.18
2022-11-06T09:32:25.432Z,81.38
2022-11-06T09:33:25.399Z,81.49
2022-11-06T09:34:25.406Z,81.49
2022-11-06T09:35:25.395Z,81.59
2022-11-06T09:36:25.364Z,81.45
2022-11-06T09:37:25.687Z,80.63
2022-11-06T09:38:25.344Z,80.94
2022-11-06T09:39:25.328Z,80.94
2022-11-06T09:40:25.344Z,80.12
2022-11-06T09:41:25.318Z,80.12
2022-11-06T09:42:25.325Z,79.91
2022-11-06T09:43:50.068Z,80.19
2022-11-06T09:44:26.292Z,79.88
2022-11-06T09:45:25.260Z,80.35
2022-11-06T09:46:25.282Z,79.74
2022-11-06T09:47:25.237Z,79.06
2022-11-06T09:48:25.229Z,79.64
2022-11-06T09:49:25.229Z,79.33
2022-11-06T09:50:25.283Z,79.53
2022-11-06T09:51:25.220Z,79.53
2022-11-06T09:52:25.191Z,80.11
2022-11-06T09:53:25.171Z,78.88
2022-11-06T09:54:25.162Z,79.19
2022-11-06T09:55:25.147Z,79.46
2022-11-06T09:56:25.201Z,78.95
2022-11-06T09:57:25.126Z,78.03
2022-11-06T09:58:25.129Z,78.44
2022-11-06T09:59:25.104Z,77.93
2022-11-06T10:00:25.181Z,77.89
2022-11-06T10:01:27.429Z,78.81
2022-11-06T10:02:25.344Z,78.20
2022-11-06T10:03:25.076Z,76.46
2022-11-06T10:04:25.050Z,77.48
2022-11-06T10:05:25.063Z,77.86
2022-11-06T10:06:25.030Z,77.75
2022-11-06T10:07:25.039Z,76.73
2022-11-06T10:08:25.013Z,77.82
2022-11-06T10:09:25.000Z,76.39
2022-11-06T10:10:25.024Z,75.57
2022-11-06T10:11:24.994Z,75.78
2022-11-06T10:12:24.964Z,75.61
2022-11-06T10:13:24.963Z,75.68
2022-11-06T10:14:24.944Z,75.71
2022-11-06T10:15:24.965Z,75.48
2022-11-06T10:16:25.034Z,75.48
2022-11-06T10:17:24.909Z,75.54
2022-11-06T10:18:24.896Z,74.05
2022-11-06T10:19:24.882Z,74.32
2022-11-06T10:20:27.361Z,74.32
2022-11-06T10:21:24.859Z,74.62
2022-11-06T10:22:24.890Z,74.73
2022-11-06T10:23:24.841Z,75.71
2022-11-06T10:24:24.824Z,73.36
2022-11-06T10:25:24.836Z,72.65
2022-11-06T10:26:27.609Z,73.02
2022-11-06T10:27:25.792Z,72.62
2022-11-06T10:28:24.779Z,73.43
2022-11-06T10:29:24.770Z,73.50
2022-11-06T10:30:24.971Z,73.60
2022-11-06T10:31:24.778Z,72.99
2022-11-06T10:32:24.841Z,72.17
2022-11-06T10:33:24.781Z,72.08
2022-11-06T10:34:24.915Z,70.75
2022-11-06T10:35:24.703Z,70.65
2022-11-06T10:36:24.690Z,70.82
2022-11-06T10:37:24.680Z,70.21
2022-11-06T10:38:24.912Z,70.10
2022-11-06T10:39:24.660Z,70.01
2022-11-06T10:40:24.679Z,70.01
2022-11-06T10:41:24.634Z,69.60
2022-11-06T10:42:24.651Z,69.40
2022-11-06T10:43:24.615Z,70.01
2022-11-06T10:44:24.615Z,69.40
2022-11-06T10:45:24.593Z,69.29
2022-11-06T10:46:24.579Z,69.09
2022-11-06T10:47:24.568Z,70.31
2022-11-06T10:48:29.925Z,69.60
2022-11-06T10:49:25.575Z,68.88
2022-11-06T10:50:24.560Z,68.68
2022-11-06T10:51:24.526Z,69.36
2022-11-06T10:52:24.513Z,69.06
2022-11-06T10:53:24.556Z,68.85
2022-11-06T10:54:24.495Z,68.85
2022-11-06T10:55:24.506Z,68.72
2022-11-06T10:56:24.469Z,68.14
2022-11-06T10:57:24.458Z,68.35
2022-11-06T10:58:24.472Z,68.85
2022-11-06T10:59:24.441Z,69.06
2022-11-06T11:00:24.422Z,69.26
2022-11-06T11:01:24.584Z,68.65
2022-11-06T11:02:24.455Z,68.65
2022-11-06T11:03:24.427Z,68.44
2022-11-06T11:04:24.399Z,68.44
2022-11-06T11:05:24.369Z,68.24
2022-11-06T11:06:24.357Z,69.46
2022-11-06T11:07:24.349Z,68.32
2022-11-06T11:08:24.359Z,69.02
2022-11-06T11:09:24.330Z,67.60
2022-11-06T11:10:24.341Z,68.21
2022-11-06T11:11:24.332Z,68.21
2022-11-06T11:12:24.302Z,67.50
2022-11-06T11:13:24.302Z,68.21
2022-11-06T11:14:24.271Z,66.79
2022-11-06T11:15:24.285Z,66.79
2022-11-06T11:16:24.249Z,66.11
2022-11-06T11:17:24.242Z,67.60
2022-11-06T11:18:24.226Z,67.02
2022-11-06T11:19:24.226Z,68.82
2022-11-06T11:20:24.244Z,68.01
2022-11-06T11:21:24.218Z,68.69
2022-11-06T11:22:27.643Z,68.18
2022-11-06T11:23:25.217Z,66.96
2022-11-06T11:24:24.156Z,68.28
2022-11-06T11:25:24.149Z,67.30
2022-11-06T11:26:24.137Z,67.47
2022-11-06T11:27:24.143Z,67.27
2022-11-06T11:28:24.111Z,66.99
2022-11-06T11:29:24.104Z,66.86
2022-11-06T11:30:24.085Z,66.86
2022-11-06T11:31:24.079Z,66.96
2022-11-06T11:32:24.088Z,66.96
2022-11-06T11:33:24.053Z,66.66
2022-11-06T11:34:24.044Z,66.96
2022-11-06T11:35:24.031Z,67.97
2022-11-06T11:36:24.061Z,67.16
2022-11-06T11:37:24.012Z,68.89
2022-11-06T11:38:24.002Z,69.30
2022-11-06T11:39:24.013Z,68.69
2022-11-06T11:40:23.973Z,68.89
2022-11-06T11:41:24.042Z,68.59
2022-11-06T11:42:23.979Z,69.09
2022-11-06T11:43:23.951Z,68.28
2022-11-06T11:44:23.928Z,69.20
2022-11-06T11:45:23.993Z,67.57
2022-11-06T11:46:23.911Z,67.30
2022-11-06T11:47:23.909Z,68.11
2022-11-06T11:48:23.912Z,68.82
2022-11-06T11:49:23.883Z,68.52
2022-11-06T11:50:23.888Z,68.52
2022-11-06T11:51:23.876Z,68.21
2022-11-06T11:52:23.882Z,68.11
2022-11-06T11:53:23.847Z,69.23
2022-11-06T11:54:23.822Z,69.13
2022-11-06T11:55:23.819Z,68.72
2022-11-06T11:56:49.723Z,69.02
2022-11-06T11:57:24.812Z,69.30
2022-11-06T11:58:23.788Z,68.59
2022-11-06T11:59:23.774Z,68.79
2022-11-06T12:00:23.781Z,68.62
2022-11-06T12:01:23.803Z,68.21
2022-11-06T12:02:27.341Z,67.71
2022-11-06T12:03:23.796Z,67.91
2022-11-06T12:04:23.708Z,68.82
2022-11-06T12:05:23.728Z,69.02
2022-11-06T12:06:23.689Z,68.41
2022-11-06T12:07:23.679Z,67.60
2022-11-06T12:08:23.703Z,66.58
2022-11-06T12:09:23.660Z,68.21
2022-11-06T12:10:23.667Z,69.02
2022-11-06T12:11:23.653Z,68.11
2022-11-06T12:12:23.616Z,67.30
2022-11-06T12:13:23.626Z,66.89
2022-11-06T12:14:23.606Z,66.18
2022-11-06T12:15:23.614Z,66.89
2022-11-06T12:16:23.575Z,67.30
2022-11-06T12:17:23.561Z,67.30
2022-11-06T12:18:23.556Z,66.79
2022-11-06T12:19:23.541Z,66.38
2022-11-06T12:20:23.554Z,66.18
2022-11-06T12:21:23.520Z,66.38
2022-11-06T12:22:23.508Z,65.97
2022-11-06T12:23:23.500Z,66.69
2022-11-06T12:24:23.535Z,66.89
2022-11-06T12:25:23.485Z,66.79
2022-11-06T12:26:23.485Z,66.69
2022-11-06T12:27:23.576Z,65.84
2022-11-06T12:28:23.438Z,64.65
2022-11-06T12:29:23.433Z,65.60
2022-11-06T12:30:23.416Z,65.30
2022-11-06T12:31:23.407Z,64.89
2022-11-06T12:32:23.415Z,65.19
2022-11-06T12:33:45.498Z,66.31
2022-11-06T12:34:24.370Z,65.80
2022-11-06T12:35:23.363Z,65.19
2022-11-06T12:36:23.357Z,65.39
2022-11-06T12:37:23.363Z,64.20
2022-11-06T12:38:23.606Z,64.41
2022-11-06T12:39:23.321Z,63.90
2022-11-06T12:40:25.418Z,64.81
2022-11-06T12:41:23.302Z,65.02
2022-11-06T12:42:23.286Z,65.43
2022-11-06T12:43:23.339Z,64.81
2022-11-06T12:44:23.291Z,65.22
2022-11-06T12:45:23.255Z,65.12
2022-11-06T12:46:23.244Z,65.30
2022-11-06T12:47:26.430Z,62.75
2022-11-06T12:48:23.236Z,63.57
2022-11-06T12:49:23.229Z,62.85
2022-11-06T12:50:23.193Z,62.85
2022-11-06T12:51:23.187Z,63.16
2022-11-06T12:52:23.181Z,63.94